sensor_id;sensor_type;location;lat;lon;timestamp;temperature;humidity
10581;DHT22;5338;51.500;6.802;2022-09-09T00:02:01;16.80;99.90
10581;DHT22;5338;51.500;6.802;2022-09-09T00:04:32;16.80;99.90
10581;DHT22;5338;51.500;6.802;2022-09-09T00:07:03;16.80;99.90
10581;DHT22;5338;51.500;6.802;2022-09-09T00:09:35;16.80;99.90
10581;DHT22;5338;51.500;6.802;2022-09-09T00:12:11;16.80;99.90
10581;DHT22;5338;51.500;6.802;2022-09-09T00:14:47;16.70;99.90
10581;DHT22;5338;51.500;6.802;2022-09-09T00:17:25;16.70;99.90
10581;DHT22;5338;51.500;6.802;2022-09-09T00:19:56;16.70;99.90
10581;DHT22;5338;51.500;6.802;2022-09-09T00:22:28;16.70;99.90
10581;DHT22;5338;51.500;6.802;2022-09-09T00:25:01;16.60;99.90
10581;DHT22;5338;51.500;6.802;2022-09-09T00:27:32;16.80;99.90
10581;DHT22;5338;51.500;6.802;2022-09-09T00:30:14;16.50;99.90
10581;DHT22;5338;51.500;6.802;2022-09-09T00:32:44;16.60;99.90
10581;DHT22;5338;51.500;6.802;2022-09-09T00:35:17;16.60;99.90
10581;DHT22;5338;51.500;6.802;2022-09-09T00:37:46;16.60;99.90
10581;DHT22;5338;51.500;6.802;2022-09-09T00:40:22;16.60;99.90
10581;DHT22;5338;51.500;6.802;2022-09-09T00:42:59;16.50;99.90
10581;DHT22;5338;51.500;6.802;2022-09-09T00:45:58;16.50;99.90
10581;DHT22;5338;51.500;6.802;2022-09-09T00:48:32;16.60;99.90
10581;DHT22;5338;51.500;6.802;2022-09-09T00:51:07;16.60;99.90
10581;DHT22;5338;51.500;6.802;2022-09-09T00:53:51;16.60;99.90
10581;DHT22;5338;51.500;6.802;2022-09-09T00:56:21;16.60;99.90
10581;DHT22;5338;51.500;6.802;2022-09-09T00:58:56;16.60;99.90
10581;DHT22;5338;51.500;6.802;2022-09-09T01:01:27;16.50;99.90
10581;DHT22;5338;51.500;6.802;2022-09-09T01:03:55;16.50;99.90
10581;DHT22;5338;51.500;6.802;2022-09-09T01:06:29;15.10;99.90
10581;DHT22;5338;51.500;6.802;2022-09-09T01:09:11;16.40;99.90
10581;DHT22;5338;51.500;6.802;2022-09-09T01:11:50;16.40;99.90
10581;DHT22;5338;51.500;6.802;2022-09-09T01:14:32;16.50;99.90
10581;DHT22;5338;51.500;6.802;2022-09-09T01:17:07;16.40;99.90
10581;DHT22;5338;51.500;6.802;2022-09-09T01:19:44;16.40;99.90
10581;DHT22;5338;51.500;6.802;2022-09-09T01:22:18;16.40;99.90
10581;DHT22;5338;51.500;6.802;2022-09-09T01:25:07;16.50;99.90
10581;DHT22;5338;51.500;6.802;2022-09-09T01:27:38;16.50;99.90
10581;DHT22;5338;51.500;6.802;2022-09-09T01:30:09;16.40;99.90
10581;DHT22;5338;51.500;6.802;2022-09-09T01:32:40;16.40;99.90
10581;DHT22;5338;51.500;6.802;2022-09-09T01:35:11;16.30;99.90
10581;DHT22;5338;51.500;6.802;2022-09-09T01:40:07;16.90;99.90
10581;DHT22;5338;51.500;6.802;2022-09-09T01:45:04;16.30;99.90
10581;DHT22;5338;51.500;6.802;2022-09-09T01:49:59;16.30;99.90
10581;DHT22;5338;51.500;6.802;2022-09-09T01:52:27;16.50;99.90
10581;DHT22;5338;51.500;6.802;2022-09-09T01:57:24;16.30;99.90
10581;DHT22;5338;51.500;6.802;2022-09-09T02:00:01;16.30;99.90
10581;DHT22;5338;51.500;6.802;2022-09-09T02:02:36;16.20;99.90
10581;DHT22;5338;51.500;6.802;2022-09-09T02:05:12;16.20;99.90
10581;DHT22;5338;51.500;6.802;2022-09-09T02:07:42;16.30;99.90
10581;DHT22;5338;51.500;6.802;2022-09-09T02:10:20;16.30;99.90
10581;DHT22;5338;51.500;6.802;2022-09-09T02:12:57;16.30;99.90
10581;DHT22;5338;51.500;6.802;2022-09-09T02:15:32;16.30;99.90
10581;DHT22;5338;51.500;6.802;2022-09-09T02:18:04;16.30;99.90
10581;DHT22;5338;51.500;6.802;2022-09-09T02:20:34;16.30;99.90
10581;DHT22;5338;51.500;6.802;2022-09-09T02:25:29;16.30;99.90
10581;DHT22;5338;51.500;6.802;2022-09-09T02:27:56;16.30;99.90
10581;DHT22;5338;51.500;6.802;2022-09-09T02:30:24;16.40;99.90
10581;DHT22;5338;51.500;6.802;2022-09-09T02:32:54;16.40;99.90
10581;DHT22;5338;51.500;6.802;2022-09-09T02:35:24;16.40;99.90
10581;DHT22;5338;51.500;6.802;2022-09-09T02:37:55;16.40;99.90
10581;DHT22;5338;51.500;6.802;2022-09-09T02:40:24;16.40;99.90
10581;DHT22;5338;51.500;6.802;2022-09-09T02:45:20;16.50;99.90
10581;DHT22;5338;51.500;6.802;2022-09-09T02:47:51;16.50;99.90
10581;DHT22;5338;51.500;6.802;2022-09-09T02:50:28;16.30;99.90
10581;DHT22;5338;51.500;6.802;2022-09-09T02:53:07;16.50;99.90
10581;DHT22;5338;51.500;6.802;2022-09-09T02:55:41;16.50;99.90
10581;DHT22;5338;51.500;6.802;2022-09-09T02:58:16;16.50;99.90
10581;DHT22;5338;51.500;6.802;2022-09-09T03:00:46;16.40;99.90
10581;DHT22;5338;51.500;6.802;2022-09-09T03:05:42;16.40;99.90
10581;DHT22;5338;51.500;6.802;2022-09-09T03:08:10;16.10;99.90
10581;DHT22;5338;51.500;6.802;2022-09-09T03:20:27;16.30;99.90
10581;DHT22;5338;51.500;6.802;2022-09-09T03:22:56;16.30;99.90
10581;DHT22;5338;51.500;6.802;2022-09-09T03:25:24;16.30;99.90
10581;DHT22;5338;51.500;6.802;2022-09-09T03:27:52;16.30;99.90
10581;DHT22;5338;51.500;6.802;2022-09-09T03:35:14;16.30;99.90
10581;DHT22;5338;51.500;6.802;2022-09-09T03:40:10;16.30;99.90
10581;DHT22;5338;51.500;6.802;2022-09-09T03:45:05;17.20;99.90
10581;DHT22;5338;51.500;6.802;2022-09-09T03:57:23;16.40;99.90
10581;DHT22;5338;51.500;6.802;2022-09-09T04:02:17;16.50;99.90
10581;DHT22;5338;51.500;6.802;2022-09-09T04:14:34;16.30;99.90
10581;DHT22;5338;51.500;6.802;2022-09-09T04:31:50;16.20;99.90
10581;DHT22;5338;51.500;6.802;2022-09-09T04:36:43;16.30;99.90
10581;DHT22;5338;51.500;6.802;2022-09-09T04:49:01;16.30;99.90
10581;DHT22;5338;51.500;6.802;2022-09-09T05:01:20;16.50;99.90
10581;DHT22;5338;51.500;6.802;2022-09-09T05:06:19;16.50;99.90
10581;DHT22;5338;51.500;6.802;2022-09-09T05:11:18;16.50;99.90
10581;DHT22;5338;51.500;6.802;2022-09-09T05:13:46;16.50;99.90
10581;DHT22;5338;51.500;6.802;2022-09-09T05:16:13;16.40;99.90
10581;DHT22;5338;51.500;6.802;2022-09-09T05:23:36;16.60;99.90
10581;DHT22;5338;51.500;6.802;2022-09-09T05:26:04;16.50;99.90
10581;DHT22;5338;51.500;6.802;2022-09-09T05:30:59;16.60;99.90
10581;DHT22;5338;51.500;6.802;2022-09-09T05:33:29;16.60;99.90
10581;DHT22;5338;51.500;6.802;2022-09-09T05:35:58;16.70;99.90
10581;DHT22;5338;51.500;6.802;2022-09-09T05:40:53;16.70;99.90
10581;DHT22;5338;51.500;6.802;2022-09-09T05:45:48;16.70;99.90
10581;DHT22;5338;51.500;6.802;2022-09-09T05:55:38;16.60;99.90
10581;DHT22;5338;51.500;6.802;2022-09-09T05:58:06;16.40;99.90
10581;DHT22;5338;51.500;6.802;2022-09-09T06:15:19;16.90;99.90
10581;DHT22;5338;51.500;6.802;2022-09-09T06:22:41;16.70;99.90
10581;DHT22;5338;51.500;6.802;2022-09-09T06:30:04;16.90;99.90
10581;DHT22;5338;51.500;6.802;2022-09-09T06:32:32;16.90;99.90
10581;DHT22;5338;51.500;6.802;2022-09-09T06:37:27;16.80;99.90
10581;DHT22;5338;51.500;6.802;2022-09-09T06:42:21;17.50;99.90
10581;DHT22;5338;51.500;6.802;2022-09-09T06:49:44;17.30;99.90
10581;DHT22;5338;51.500;6.802;2022-09-09T07:04:27;17.60;99.90
10581;DHT22;5338;51.500;6.802;2022-09-09T07:06:55;17.40;99.90
10581;DHT22;5338;51.500;6.802;2022-09-09T07:11:50;17.40;99.90
10581;DHT22;5338;51.500;6.802;2022-09-09T07:14:18;17.30;99.90
10581;DHT22;5338;51.500;6.802;2022-09-09T07:16:45;17.50;99.90
10581;DHT22;5338;51.500;6.802;2022-09-09T07:19:13;17.40;99.90
10581;DHT22;5338;51.500;6.802;2022-09-09T07:21:40;17.50;99.90
10581;DHT22;5338;51.500;6.802;2022-09-09T07:24:09;17.80;99.90
10581;DHT22;5338;51.500;6.802;2022-09-09T07:26:37;17.80;99.90
10581;DHT22;5338;51.500;6.802;2022-09-09T07:31:33;17.90;99.90
10581;DHT22;5338;51.500;6.802;2022-09-09T07:34:00;18.10;99.90
10581;DHT22;5338;51.500;6.802;2022-09-09T07:36:29;18.10;99.90
10581;DHT22;5338;51.500;6.802;2022-09-09T07:38:57;18.50;99.90
10581;DHT22;5338;51.500;6.802;2022-09-09T07:41:28;17.90;99.90
10581;DHT22;5338;51.500;6.802;2022-09-09T07:46:25;18.40;99.90
10581;DHT22;5338;51.500;6.802;2022-09-09T07:48:54;17.90;99.90
10581;DHT22;5338;51.500;6.802;2022-09-09T07:51:23;18.20;99.90
10581;DHT22;5338;51.500;6.802;2022-09-09T07:53:53;18.10;99.90
10581;DHT22;5338;51.500;6.802;2022-09-09T07:58:50;19.30;99.90
10581;DHT22;5338;51.500;6.802;2022-09-09T08:01:20;18.20;99.90
10581;DHT22;5338;51.500;6.802;2022-09-09T08:03:52;18.30;99.90
10581;DHT22;5338;51.500;6.802;2022-09-09T08:08:50;18.30;99.90
10581;DHT22;5338;51.500;6.802;2022-09-09T08:11:17;18.50;99.90
10581;DHT22;5338;51.500;6.802;2022-09-09T08:16:15;18.20;99.90
10581;DHT22;5338;51.500;6.802;2022-09-09T08:21:12;18.50;99.90
10581;DHT22;5338;51.500;6.802;2022-09-09T08:23:39;18.30;99.90
10581;DHT22;5338;51.500;6.802;2022-09-09T08:26:10;18.20;99.90
10581;DHT22;5338;51.500;6.802;2022-09-09T08:31:07;18.50;99.90
10581;DHT22;5338;51.500;6.802;2022-09-09T08:33:36;18.70;99.90
10581;DHT22;5338;51.500;6.802;2022-09-09T08:41:07;18.50;99.90
10581;DHT22;5338;51.500;6.802;2022-09-09T08:46:11;18.60;99.90
10581;DHT22;5338;51.500;6.802;2022-09-09T08:48:55;18.70;99.90
10581;DHT22;5338;51.500;6.802;2022-09-09T08:51:25;18.80;99.90
10581;DHT22;5338;51.500;6.802;2022-09-09T08:53:54;18.90;99.90
10581;DHT22;5338;51.500;6.802;2022-09-09T08:56:23;19.10;99.90
10581;DHT22;5338;51.500;6.802;2022-09-09T08:58:52;19.20;99.90
10581;DHT22;5338;51.500;6.802;2022-09-09T09:01:38;19.30;99.90
10581;DHT22;5338;51.500;6.802;2022-09-09T09:04:22;19.50;99.90
10581;DHT22;5338;51.500;6.802;2022-09-09T09:06:58;19.10;99.90
10581;DHT22;5338;51.500;6.802;2022-09-09T09:09:32;19.60;99.90
10581;DHT22;5338;51.500;6.802;2022-09-09T09:12:15;19.60;99.90
10581;DHT22;5338;51.500;6.802;2022-09-09T09:14:43;19.30;99.90
10581;DHT22;5338;51.500;6.802;2022-09-09T09:17:12;19.10;99.90
10581;DHT22;5338;51.500;6.802;2022-09-09T09:19:43;19.10;99.90
10581;DHT22;5338;51.500;6.802;2022-09-09T09:22:17;18.70;99.90
10581;DHT22;5338;51.500;6.802;2022-09-09T09:24:50;18.70;99.90
10581;DHT22;5338;51.500;6.802;2022-09-09T09:27:25;18.90;99.90
10581;DHT22;5338;51.500;6.802;2022-09-09T09:29:55;19.30;99.90
10581;DHT22;5338;51.500;6.802;2022-09-09T09:32:24;19.00;99.90
10581;DHT22;5338;51.500;6.802;2022-09-09T09:34:55;19.00;99.90
10581;DHT22;5338;51.500;6.802;2022-09-09T09:37:26;19.00;99.90
10581;DHT22;5338;51.500;6.802;2022-09-09T09:42:22;18.80;99.90
10581;DHT22;5338;51.500;6.802;2022-09-09T09:44:50;18.70;99.90
10581;DHT22;5338;51.500;6.802;2022-09-09T09:47:18;19.10;99.90
10581;DHT22;5338;51.500;6.802;2022-09-09T09:49:53;18.80;99.90
10581;DHT22;5338;51.500;6.802;2022-09-09T09:52:23;18.80;99.90
10581;DHT22;5338;51.500;6.802;2022-09-09T09:54:50;18.80;99.90
10581;DHT22;5338;51.500;6.802;2022-09-09T09:57:24;18.80;99.90
10581;DHT22;5338;51.500;6.802;2022-09-09T10:00:02;19.00;99.90
10581;DHT22;5338;51.500;6.802;2022-09-09T10:02:38;18.90;99.90
10581;DHT22;5338;51.500;6.802;2022-09-09T10:05:14;19.00;99.90
10581;DHT22;5338;51.500;6.802;2022-09-09T10:10:15;19.50;99.90
10581;DHT22;5338;51.500;6.802;2022-09-09T10:12:53;19.40;99.90
10581;DHT22;5338;51.500;6.802;2022-09-09T10:15:34;20.10;99.90
10581;DHT22;5338;51.500;6.802;2022-09-09T10:18:14;20.60;99.90
10581;DHT22;5338;51.500;6.802;2022-09-09T10:20:53;21.00;99.90
10581;DHT22;5338;51.500;6.802;2022-09-09T10:23:36;20.80;99.90
10581;DHT22;5338;51.500;6.802;2022-09-09T10:26:24;21.00;99.90
10581;DHT22;5338;51.500;6.802;2022-09-09T10:29:22;20.30;99.90
10581;DHT22;5338;51.500;6.802;2022-09-09T10:32:02;20.10;99.90
10581;DHT22;5338;51.500;6.802;2022-09-09T10:34:49;19.90;99.90
10581;DHT22;5338;51.500;6.802;2022-09-09T10:37:29;19.70;99.90
10581;DHT22;5338;51.500;6.802;2022-09-09T10:40:12;19.70;99.90
10581;DHT22;5338;51.500;6.802;2022-09-09T10:45:17;19.40;99.90
10581;DHT22;5338;51.500;6.802;2022-09-09T10:47:55;19.30;99.90
10581;DHT22;5338;51.500;6.802;2022-09-09T10:50:45;19.20;99.90
10581;DHT22;5338;51.500;6.802;2022-09-09T10:53:21;19.20;99.90
10581;DHT22;5338;51.500;6.802;2022-09-09T10:55:53;19.20;99.90
10581;DHT22;5338;51.500;6.802;2022-09-09T10:58:28;19.20;99.90
10581;DHT22;5338;51.500;6.802;2022-09-09T11:00:59;19.20;99.90
10581;DHT22;5338;51.500;6.802;2022-09-09T11:03:28;19.00;99.90
10581;DHT22;5338;51.500;6.802;2022-09-09T11:05:59;19.50;99.90
10581;DHT22;5338;51.500;6.802;2022-09-09T11:08:29;19.30;99.90
10581;DHT22;5338;51.500;6.802;2022-09-09T11:11:02;19.40;99.90
10581;DHT22;5338;51.500;6.802;2022-09-09T11:13:34;19.10;99.90
10581;DHT22;5338;51.500;6.802;2022-09-09T11:16:11;19.60;99.90
10581;DHT22;5338;51.500;6.802;2022-09-09T11:18:42;19.60;99.90
10581;DHT22;5338;51.500;6.802;2022-09-09T11:21:17;19.50;99.90
10581;DHT22;5338;51.500;6.802;2022-09-09T11:23:50;19.60;99.90
10581;DHT22;5338;51.500;6.802;2022-09-09T11:26:28;19.60;99.90
10581;DHT22;5338;51.500;6.802;2022-09-09T11:29:10;19.30;99.90
10581;DHT22;5338;51.500;6.802;2022-09-09T11:31:45;19.70;99.90
10581;DHT22;5338;51.500;6.802;2022-09-09T11:34:37;19.80;99.90
10581;DHT22;5338;51.500;6.802;2022-09-09T11:37:16;19.90;99.90
10581;DHT22;5338;51.500;6.802;2022-09-09T11:40:14;20.40;99.90
10581;DHT22;5338;51.500;6.802;2022-09-09T11:42:43;20.40;99.90
10581;DHT22;5338;51.500;6.802;2022-09-09T11:45:15;20.30;99.90
10581;DHT22;5338;51.500;6.802;2022-09-09T11:47:52;20.60;99.90
10581;DHT22;5338;51.500;6.802;2022-09-09T11:50:29;20.40;99.90
10581;DHT22;5338;51.500;6.802;2022-09-09T11:53:17;20.50;99.90
10581;DHT22;5338;51.500;6.802;2022-09-09T11:55:48;20.10;99.90
10581;DHT22;5338;51.500;6.802;2022-09-09T11:58:17;20.00;99.90
10581;DHT22;5338;51.500;6.802;2022-09-09T12:00:46;20.00;99.90
10581;DHT22;5338;51.500;6.802;2022-09-09T12:03:39;20.20;99.90
10581;DHT22;5338;51.500;6.802;2022-09-09T12:06:13;19.90;99.90
10581;DHT22;5338;51.500;6.802;2022-09-09T12:08:45;19.90;99.90
10581;DHT22;5338;51.500;6.802;2022-09-09T12:11:24;20.00;99.90
10581;DHT22;5338;51.500;6.802;2022-09-09T12:13:56;19.60;99.90
10581;DHT22;5338;51.500;6.802;2022-09-09T12:16:35;19.60;99.90
10581;DHT22;5338;51.500;6.802;2022-09-09T12:19:05;19.50;99.90
10581;DHT22;5338;51.500;6.802;2022-09-09T12:21:38;19.70;99.90
10581;DHT22;5338;51.500;6.802;2022-09-09T12:24:09;19.70;99.90
10581;DHT22;5338;51.500;6.802;2022-09-09T12:26:41;19.70;99.90
10581;DHT22;5338;51.500;6.802;2022-09-09T12:29:20;19.70;99.90
10581;DHT22;5338;51.500;6.802;2022-09-09T12:31:55;19.90;99.90
10581;DHT22;5338;51.500;6.802;2022-09-09T12:34:33;19.90;99.90
10581;DHT22;5338;51.500;6.802;2022-09-09T12:37:05;20.00;99.90
10581;DHT22;5338;51.500;6.802;2022-09-09T12:39:37;19.90;99.90
10581;DHT22;5338;51.500;6.802;2022-09-09T12:42:16;19.40;99.90
10581;DHT22;5338;51.500;6.802;2022-09-09T12:44:51;19.30;99.90
10581;DHT22;5338;51.500;6.802;2022-09-09T12:47:19;18.90;99.90
10581;DHT22;5338;51.500;6.802;2022-09-09T12:49:48;19.20;99.90
10581;DHT22;5338;51.500;6.802;2022-09-09T12:52:21;19.10;99.90
10581;DHT22;5338;51.500;6.802;2022-09-09T12:54:50;19.10;99.90
10581;DHT22;5338;51.500;6.802;2022-09-09T12:57:18;18.80;99.90
10581;DHT22;5338;51.500;6.802;2022-09-09T13:02:21;18.80;99.90
10581;DHT22;5338;51.500;6.802;2022-09-09T13:04:50;18.90;99.90
10581;DHT22;5338;51.500;6.802;2022-09-09T13:09:46;18.40;99.90
10581;DHT22;5338;51.500;6.802;2022-09-09T13:12:16;18.20;99.90
10581;DHT22;5338;51.500;6.802;2022-09-09T13:14:47;18.20;99.90
10581;DHT22;5338;51.500;6.802;2022-09-09T13:17:19;18.30;99.90
10581;DHT22;5338;51.500;6.802;2022-09-09T13:19:47;18.70;99.90
10581;DHT22;5338;51.500;6.802;2022-09-09T13:22:21;18.50;99.90
10581;DHT22;5338;51.500;6.802;2022-09-09T13:24:59;18.50;99.90
10581;DHT22;5338;51.500;6.802;2022-09-09T13:27:30;18.40;99.90
10581;DHT22;5338;51.500;6.802;2022-09-09T13:29:58;18.10;99.90
10581;DHT22;5338;51.500;6.802;2022-09-09T13:32:26;18.40;99.90
10581;DHT22;5338;51.500;6.802;2022-09-09T13:34:55;18.60;99.90
10581;DHT22;5338;51.500;6.802;2022-09-09T13:37:26;18.80;99.90
10581;DHT22;5338;51.500;6.802;2022-09-09T13:39:54;18.80;99.90
10581;DHT22;5338;51.500;6.802;2022-09-09T13:42:26;19.40;99.90
10581;DHT22;5338;51.500;6.802;2022-09-09T13:44:55;19.70;99.90
10581;DHT22;5338;51.500;6.802;2022-09-09T13:47:29;19.80;99.90
10581;DHT22;5338;51.500;6.802;2022-09-09T13:52:24;20.20;99.90
10581;DHT22;5338;51.500;6.802;2022-09-09T13:57:22;20.60;99.90
10581;DHT22;5338;51.500;6.802;2022-09-09T13:59:51;20.40;99.90
10581;DHT22;5338;51.500;6.802;2022-09-09T14:02:18;20.70;99.90
10581;DHT22;5338;51.500;6.802;2022-09-09T14:04:48;20.30;99.90
10581;DHT22;5338;51.500;6.802;2022-09-09T14:07:17;20.60;99.90
10581;DHT22;5338;51.500;6.802;2022-09-09T14:12:15;20.50;99.90
10581;DHT22;5338;51.500;6.802;2022-09-09T14:22:05;19.90;99.90
10581;DHT22;5338;51.500;6.802;2022-09-09T14:39:18;19.60;99.90
10581;DHT22;5338;51.500;6.802;2022-09-09T14:56:33;18.00;99.90
10581;DHT22;5338;51.500;6.802;2022-09-09T15:01:29;17.50;99.90
10581;DHT22;5338;51.500;6.802;2022-09-09T15:03:58;17.30;99.90
10581;DHT22;5338;51.500;6.802;2022-09-09T15:06:26;17.20;99.90
10581;DHT22;5338;51.500;6.802;2022-09-09T15:08:55;17.30;99.90
10581;DHT22;5338;51.500;6.802;2022-09-09T15:11:25;17.00;99.90
10581;DHT22;5338;51.500;6.802;2022-09-09T15:13:54;17.20;99.90
10581;DHT22;5338;51.500;6.802;2022-09-09T15:16:24;17.20;99.90
10581;DHT22;5338;51.500;6.802;2022-09-09T15:18:52;17.00;99.90
10581;DHT22;5338;51.500;6.802;2022-09-09T15:21:21;17.00;99.90
10581;DHT22;5338;51.500;6.802;2022-09-09T15:28:46;17.30;99.90
10581;DHT22;5338;51.500;6.802;2022-09-09T15:31:18;17.20;99.90
10581;DHT22;5338;51.500;6.802;2022-09-09T15:33:47;17.20;99.90
10581;DHT22;5338;51.500;6.802;2022-09-09T15:36:16;17.20;99.90
10581;DHT22;5338;51.500;6.802;2022-09-09T15:43:37;17.40;99.90
10581;DHT22;5338;51.500;6.802;2022-09-09T15:46:23;17.60;99.90
10581;DHT22;5338;51.500;6.802;2022-09-09T15:48:53;17.90;99.90
10581;DHT22;5338;51.500;6.802;2022-09-09T15:51:21;18.00;99.90
10581;DHT22;5338;51.500;6.802;2022-09-09T15:53:48;18.10;99.90
10581;DHT22;5338;51.500;6.802;2022-09-09T15:56:18;18.10;99.90
10581;DHT22;5338;51.500;6.802;2022-09-09T16:03:42;18.20;99.90
10581;DHT22;5338;51.500;6.802;2022-09-09T16:06:12;18.10;99.90
10581;DHT22;5338;51.500;6.802;2022-09-09T16:08:41;18.00;99.90
10581;DHT22;5338;51.500;6.802;2022-09-09T16:11:11;18.00;99.90
10581;DHT22;5338;51.500;6.802;2022-09-09T16:13:40;18.00;99.90
10581;DHT22;5338;51.500;6.802;2022-09-09T16:16:09;17.90;99.90
10581;DHT22;5338;51.500;6.802;2022-09-09T16:18:39;18.10;99.90
10581;DHT22;5338;51.500;6.802;2022-09-09T16:21:08;17.90;99.90
10581;DHT22;5338;51.500;6.802;2022-09-09T16:23:37;17.60;99.90
10581;DHT22;5338;51.500;6.802;2022-09-09T16:38:22;17.70;99.90
10581;DHT22;5338;51.500;6.802;2022-09-09T16:48:11;17.60;99.90
10581;DHT22;5338;51.500;6.802;2022-09-09T16:55:39;17.40;99.90
10581;DHT22;5338;51.500;6.802;2022-09-09T17:10:23;17.50;99.90
10581;DHT22;5338;51.500;6.802;2022-09-09T17:12:52;17.40;99.90
10581;DHT22;5338;51.500;6.802;2022-09-09T17:17:46;17.80;99.90
10581;DHT22;5338;51.500;6.802;2022-09-09T17:25:10;17.30;99.90
10581;DHT22;5338;51.500;6.802;2022-09-09T17:30:06;17.30;99.90
10581;DHT22;5338;51.500;6.802;2022-09-09T17:35:02;17.30;99.90
10581;DHT22;5338;51.500;6.802;2022-09-09T17:47:22;17.10;99.90
10581;DHT22;5338;51.500;6.802;2022-09-09T18:04:35;17.00;99.90
10581;DHT22;5338;51.500;6.802;2022-09-09T18:09:29;17.20;99.90
10581;DHT22;5338;51.500;6.802;2022-09-09T18:11:58;16.80;99.90
10581;DHT22;5338;51.500;6.802;2022-09-09T18:14:28;17.00;99.90
10581;DHT22;5338;51.500;6.802;2022-09-09T18:16:56;17.00;99.90
10581;DHT22;5338;51.500;6.802;2022-09-09T18:19:24;17.00;99.90
10581;DHT22;5338;51.500;6.802;2022-09-09T18:21:53;17.00;99.90
10581;DHT22;5338;51.500;6.802;2022-09-09T18:24:21;17.00;99.90
10581;DHT22;5338;51.500;6.802;2022-09-09T18:26:48;17.00;99.90
10581;DHT22;5338;51.500;6.802;2022-09-09T18:29:17;17.00;99.90
10581;DHT22;5338;51.500;6.802;2022-09-09T18:31:45;16.80;99.90
10581;DHT22;5338;51.500;6.802;2022-09-09T18:34:14;17.00;99.90
10581;DHT22;5338;51.500;6.802;2022-09-09T18:36:42;17.00;99.90
10581;DHT22;5338;51.500;6.802;2022-09-09T18:39:12;17.20;99.90
10581;DHT22;5338;51.500;6.802;2022-09-09T18:41:40;17.00;99.90
10581;DHT22;5338;51.500;6.802;2022-09-09T18:44:10;17.00;99.90
10581;DHT22;5338;51.500;6.802;2022-09-09T18:46:38;17.00;99.90
10581;DHT22;5338;51.500;6.802;2022-09-09T18:49:06;16.90;99.90
10581;DHT22;5338;51.500;6.802;2022-09-09T18:51:33;17.00;99.90
10581;DHT22;5338;51.500;6.802;2022-09-09T18:54:03;17.00;99.90
10581;DHT22;5338;51.500;6.802;2022-09-09T18:56:32;17.00;99.90
10581;DHT22;5338;51.500;6.802;2022-09-09T18:59:01;17.00;99.90
10581;DHT22;5338;51.500;6.802;2022-09-09T19:01:29;17.00;99.90
10581;DHT22;5338;51.500;6.802;2022-09-09T19:06:27;17.10;99.90
10581;DHT22;5338;51.500;6.802;2022-09-09T19:08:55;17.10;99.90
10581;DHT22;5338;51.500;6.802;2022-09-09T19:13:53;17.10;99.90
10581;DHT22;5338;51.500;6.802;2022-09-09T19:16:22;17.20;99.90
10581;DHT22;5338;51.500;6.802;2022-09-09T19:18:50;17.20;99.90
10581;DHT22;5338;51.500;6.802;2022-09-09T19:21:22;17.20;99.90
10581;DHT22;5338;51.500;6.802;2022-09-09T19:23:54;17.20;99.90
10581;DHT22;5338;51.500;6.802;2022-09-09T19:26:25;17.20;99.90
10581;DHT22;5338;51.500;6.802;2022-09-09T19:28:53;17.20;99.90
10581;DHT22;5338;51.500;6.802;2022-09-09T19:33:48;17.30;99.90
10581;DHT22;5338;51.500;6.802;2022-09-09T19:36:17;17.20;99.90
10581;DHT22;5338;51.500;6.802;2022-09-09T19:41:15;17.20;99.90
10581;DHT22;5338;51.500;6.802;2022-09-09T19:43:43;16.80;99.90
10581;DHT22;5338;51.500;6.802;2022-09-09T19:46:13;17.10;99.90
10581;DHT22;5338;51.500;6.802;2022-09-09T19:48:43;17.00;99.90
10581;DHT22;5338;51.500;6.802;2022-09-09T19:51:13;17.00;99.90
10581;DHT22;5338;51.500;6.802;2022-09-09T19:53:42;16.90;99.90
10581;DHT22;5338;51.500;6.802;2022-09-09T19:56:09;17.00;99.90
10581;DHT22;5338;51.500;6.802;2022-09-09T19:58:37;16.90;99.90
10581;DHT22;5338;51.500;6.802;2022-09-09T20:01:07;17.20;99.90
10581;DHT22;5338;51.500;6.802;2022-09-09T20:03:35;16.90;99.90
10581;DHT22;5338;51.500;6.802;2022-09-09T20:06:03;17.00;99.90
10581;DHT22;5338;51.500;6.802;2022-09-09T20:15:57;16.40;99.90
10581;DHT22;5338;51.500;6.802;2022-09-09T20:18:27;16.80;99.90
10581;DHT22;5338;51.500;6.802;2022-09-09T20:20:58;16.90;99.90
10581;DHT22;5338;51.500;6.802;2022-09-09T20:23:26;16.60;99.90
10581;DHT22;5338;51.500;6.802;2022-09-09T20:28:21;16.90;99.90
10581;DHT22;5338;51.500;6.802;2022-09-09T20:35:43;16.90;99.90
10581;DHT22;5338;51.500;6.802;2022-09-09T20:38:11;16.90;99.90
10581;DHT22;5338;51.500;6.802;2022-09-09T20:40:39;16.90;99.90
10581;DHT22;5338;51.500;6.802;2022-09-09T20:48:03;16.80;99.90
10581;DHT22;5338;51.500;6.802;2022-09-09T20:55:25;18.70;99.90
10581;DHT22;5338;51.500;6.802;2022-09-09T20:57:52;16.60;99.90
10581;DHT22;5338;51.500;6.802;2022-09-09T21:00:19;17.20;99.90
10581;DHT22;5338;51.500;6.802;2022-09-09T21:07:41;16.70;99.90
10581;DHT22;5338;51.500;6.802;2022-09-09T21:10:08;16.60;99.90
10581;DHT22;5338;51.500;6.802;2022-09-09T21:12:36;16.80;99.90
10581;DHT22;5338;51.500;6.802;2022-09-09T21:15:04;16.80;99.90
10581;DHT22;5338;51.500;6.802;2022-09-09T21:29:51;16.80;99.90
10581;DHT22;5338;51.500;6.802;2022-09-09T21:47:03;17.20;99.90
10581;DHT22;5338;51.500;6.802;2022-09-09T21:54:28;16.70;99.90
10581;DHT22;5338;51.500;6.802;2022-09-09T21:56:55;16.60;99.90
10581;DHT22;5338;51.500;6.802;2022-09-09T22:01:50;16.40;99.90
10581;DHT22;5338;51.500;6.802;2022-09-09T22:04:18;16.50;99.90
10581;DHT22;5338;51.500;6.802;2022-09-09T22:21:30;16.60;99.90
10581;DHT22;5338;51.500;6.802;2022-09-09T22:24:00;16.60;99.90
10581;DHT22;5338;51.500;6.802;2022-09-09T22:26:30;16.60;99.90
10581;DHT22;5338;51.500;6.802;2022-09-09T22:31:26;16.80;99.90
10581;DHT22;5338;51.500;6.802;2022-09-09T22:38:49;16.90;99.90
10581;DHT22;5338;51.500;6.802;2022-09-09T22:41:16;16.70;99.90
10581;DHT22;5338;51.500;6.802;2022-09-09T22:43:44;16.80;99.90
10581;DHT22;5338;51.500;6.802;2022-09-09T22:46:11;16.80;99.90
10581;DHT22;5338;51.500;6.802;2022-09-09T22:51:08;16.80;99.90
10581;DHT22;5338;51.500;6.802;2022-09-09T22:56:05;16.70;99.90
10581;DHT22;5338;51.500;6.802;2022-09-09T22:58:34;16.60;99.90
10581;DHT22;5338;51.500;6.802;2022-09-09T23:01:07;16.60;99.90
10581;DHT22;5338;51.500;6.802;2022-09-09T23:03:34;16.80;99.90
10581;DHT22;5338;51.500;6.802;2022-09-09T23:08:31;16.20;99.90
10581;DHT22;5338;51.500;6.802;2022-09-09T23:13:27;16.30;99.90
10581;DHT22;5338;51.500;6.802;2022-09-09T23:15:55;16.70;99.90
10581;DHT22;5338;51.500;6.802;2022-09-09T23:20:55;16.40;99.90
10581;DHT22;5338;51.500;6.802;2022-09-09T23:23:25;16.40;99.90
10581;DHT22;5338;51.500;6.802;2022-09-09T23:30:47;16.60;99.90
10581;DHT22;5338;51.500;6.802;2022-09-09T23:35:42;16.60;99.90
10581;DHT22;5338;51.500;6.802;2022-09-09T23:48:02;16.60;99.90
